createdAt,value
2017-10-11T00:02:07.365Z,19.40
2017-10-11T00:04:34.996Z,18.90
2017-10-11T00:07:02.585Z,18.67
2017-10-11T00:09:30.197Z,18.47
2017-10-11T00:11:57.826Z,18.23
2017-10-11T00:14:25.463Z,18.50
2017-10-11T00:16:53.057Z,18.10
2017-10-11T00:19:20.651Z,18.90
2017-10-11T00:21:48.266Z,18.03
2017-10-11T00:24:15.861Z,17.27
2017-10-11T00:26:43.530Z,16.23
2017-10-11T00:29:11.130Z,17.20
2017-10-11T00:31:39.014Z,18.27
2017-10-11T00:34:06.641Z,17.30
2017-10-11T00:36:34.233Z,17.17
2017-10-11T00:39:01.861Z,16.97
2017-10-11T00:41:29.437Z,16.43
2017-10-11T00:43:57.034Z,17.03
2017-10-11T00:46:24.668Z,16.83
2017-10-11T00:48:52.257Z,17.20
2017-10-11T00:51:20.201Z,16.97
2017-10-11T00:53:47.794Z,15.70
2017-10-11T00:56:15.734Z,16.47
2017-10-11T00:58:43.368Z,16.40
2017-10-11T01:01:10.967Z,16.00
2017-10-11T01:03:38.597Z,16.37
2017-10-11T01:06:06.182Z,16.77
2017-10-11T01:08:33.785Z,16.10
2017-10-11T01:11:01.399Z,16.17
2017-10-11T01:13:28.980Z,15.67
2017-10-11T01:15:56.617Z,16.17
2017-10-11T01:18:24.197Z,15.67
2017-10-11T01:20:51.790Z,15.83
2017-10-11T01:23:19.406Z,15.70
2017-10-11T01:25:46.990Z,16.17
2017-10-11T01:28:14.617Z,16.30
2017-10-11T01:30:42.230Z,15.33
2017-10-11T01:33:09.809Z,15.70
2017-10-11T01:35:37.422Z,17.17
2017-10-11T01:38:05.014Z,16.07
2017-10-11T01:40:32.692Z,16.77
2017-10-11T01:43:00.300Z,16.67
2017-10-11T01:45:27.906Z,17.23
2017-10-11T01:47:55.522Z,17.37
2017-10-11T01:50:23.111Z,16.60
2017-10-11T01:52:50.737Z,17.90
2017-10-11T01:55:18.338Z,18.50
2017-10-11T01:57:46.181Z,17.63
2017-10-11T02:00:13.796Z,17.77
2017-10-11T02:02:41.391Z,18.67
2017-10-11T02:05:09.024Z,18.53
2017-10-11T02:07:36.646Z,18.20
2017-10-11T02:10:04.242Z,19.67
2017-10-11T02:12:31.847Z,20.40
2017-10-11T02:14:59.434Z,20.33
2017-10-11T02:17:27.055Z,20.20
2017-10-11T02:19:54.653Z,22.23
2017-10-11T02:22:22.254Z,21.50
2017-10-11T02:24:49.862Z,23.30
2017-10-11T02:27:17.734Z,24.00
2017-10-11T02:29:45.361Z,25.70
2017-10-11T02:32:12.988Z,25.97
2017-10-11T02:34:40.592Z,25.97
2017-10-11T02:37:08.485Z,24.57
2017-10-11T02:39:36.074Z,26.80
2017-10-11T02:42:04.018Z,26.43
2017-10-11T02:44:31.601Z,27.70
2017-10-11T02:46:59.193Z,28.10
2017-10-11T02:49:26.816Z,26.33
2017-10-11T02:51:54.406Z,26.83
2017-10-11T02:54:22.037Z,26.43
2017-10-11T02:56:49.653Z,26.80
2017-10-11T02:59:17.248Z,26.67
2017-10-11T03:01:44.861Z,27.57
2017-10-11T03:04:12.475Z,26.57
2017-10-11T03:06:40.101Z,26.23
2017-10-11T03:09:07.698Z,25.90
2017-10-11T03:11:35.565Z,25.67
2017-10-11T03:14:03.192Z,25.57
2017-10-11T03:16:30.807Z,25.10
2017-10-11T03:18:58.761Z,24.83
2017-10-11T03:21:26.624Z,26.37
2017-10-11T03:23:54.223Z,25.07
2017-10-11T03:26:21.845Z,25.20
2017-10-11T03:28:49.433Z,24.67
2017-10-11T03:31:17.065Z,26.50
2017-10-11T03:33:44.664Z,23.47
2017-10-11T03:36:12.280Z,23.23
2017-10-11T03:38:39.901Z,24.13
2017-10-11T03:41:07.486Z,22.50
2017-10-11T03:43:35.109Z,23.90
2017-10-11T03:46:02.714Z,23.70
2017-10-11T03:48:30.309Z,22.83
2017-10-11T03:50:57.930Z,23.47
2017-10-11T03:53:25.545Z,22.20
2017-10-11T03:55:53.192Z,22.33
2017-10-11T03:58:20.785Z,21.13
2017-10-11T04:00:48.381Z,23.07
2017-10-11T04:03:16.039Z,22.80
2017-10-11T04:05:43.629Z,22.63
2017-10-11T04:08:11.263Z,21.47
2017-10-11T04:10:38.851Z,21.70
2017-10-11T04:13:06.732Z,21.17
2017-10-11T04:15:34.347Z,21.13
2017-10-11T04:18:01.937Z,19.97
2017-10-11T04:20:29.553Z,21.10
2017-10-11T04:22:57.485Z,21.87
2017-10-11T04:25:25.095Z,20.80
2017-10-11T04:27:52.704Z,21.50
2017-10-11T04:30:20.293Z,20.57
2017-10-11T04:32:47.920Z,20.80
2017-10-11T04:35:15.509Z,20.70
2017-10-11T04:37:43.098Z,20.80
2017-10-11T04:40:10.736Z,20.30
2017-10-11T04:42:38.589Z,21.23
2017-10-11T04:45:06.211Z,20.60
2017-10-11T04:47:33.821Z,21.33
2017-10-11T04:50:01.417Z,21.50
2017-10-11T04:52:29.036Z,20.60
2017-10-11T04:54:56.617Z,21.87
2017-10-11T04:57:24.244Z,22.00
2017-10-11T04:59:51.823Z,21.10
2017-10-11T05:02:19.401Z,20.53
2017-10-11T05:04:47.379Z,21.90
2017-10-11T05:07:15.339Z,20.73
2017-10-11T05:09:42.917Z,20.50
2017-10-11T05:12:10.536Z,21.90
2017-10-11T05:14:38.137Z,20.57
2017-10-11T05:17:05.722Z,19.87
2017-10-11T05:19:33.641Z,20.80
2017-10-11T05:22:01.232Z,20.70
2017-10-11T05:24:29.274Z,20.57
2017-10-11T05:26:56.880Z,21.57
2017-10-11T05:29:24.476Z,21.50
2017-10-11T05:31:52.109Z,21.30
2017-10-11T05:34:19.693Z,21.40
2017-10-11T05:36:47.302Z,21.73
2017-10-11T05:39:14.988Z,21.70
2017-10-11T05:41:42.590Z,21.40
2017-10-11T05:44:10.216Z,21.50
2017-10-11T05:46:37.797Z,22.90
2017-10-11T05:49:05.393Z,23.20
2017-10-11T05:51:33.009Z,20.73
2017-10-11T05:54:00.610Z,20.50
2017-10-11T05:56:52.499Z,20.83
2017-10-11T05:59:21.720Z,21.10
2017-10-11T06:01:49.345Z,22.80
2017-10-11T06:04:17.377Z,21.57
2017-10-11T06:06:45.085Z,21.40
2017-10-11T06:09:13.088Z,20.80
2017-10-11T06:11:40.726Z,20.37
2017-10-11T06:14:08.852Z,22.03
2017-10-11T06:16:36.766Z,19.97
2017-10-11T06:19:04.382Z,20.30
2017-10-11T06:21:32.002Z,21.10
2017-10-11T06:23:59.617Z,20.77
2017-10-11T06:26:27.209Z,20.60
2017-10-11T06:28:55.135Z,18.27
2017-10-11T06:31:23.001Z,20.47
2017-10-11T06:33:50.585Z,19.90
2017-10-11T06:36:18.201Z,19.03
2017-10-11T06:38:45.797Z,18.83
2017-10-11T06:41:13.867Z,18.17
2017-10-11T06:43:41.484Z,19.10
2017-10-11T06:46:09.390Z,18.90
2017-10-11T06:48:37.073Z,18.60
2017-10-11T06:51:04.671Z,18.60
2017-10-11T06:53:32.293Z,18.83
2017-10-11T06:56:01.070Z,18.13
2017-10-11T06:58:28.652Z,16.90
2017-10-11T07:00:56.598Z,16.40
2017-10-11T07:03:24.229Z,16.53
2017-10-11T07:05:51.860Z,16.67
2017-10-11T07:08:19.456Z,16.43
2017-10-11T07:10:47.048Z,15.87
2017-10-11T07:13:15.117Z,18.50
2017-10-11T07:15:42.698Z,15.80
2017-10-11T07:18:10.326Z,15.80
2017-10-11T07:20:38.050Z,15.87
2017-10-11T07:23:05.977Z,15.17
2017-10-11T07:25:33.593Z,15.27
2017-10-11T07:28:01.193Z,14.40
2017-10-11T07:30:28.833Z,14.90
2017-10-11T07:32:56.421Z,14.43
2017-10-11T07:35:24.014Z,14.50
2017-10-11T07:37:51.633Z,14.63
2017-10-11T07:40:19.225Z,14.60
2017-10-11T07:42:46.846Z,14.80
2017-10-11T07:45:14.757Z,14.80
2017-10-11T07:47:42.343Z,14.63
2017-10-11T07:50:09.963Z,13.30
2017-10-11T07:52:37.540Z,13.30
2017-10-11T07:55:05.191Z,13.53
2017-10-11T07:57:32.803Z,14.13
2017-10-11T08:00:00.391Z,14.13
2017-10-11T08:02:28.005Z,12.33
2017-10-11T08:04:55.874Z,13.23
2017-10-11T08:07:23.805Z,13.30
2017-10-11T08:09:51.778Z,12.00
2017-10-11T08:12:19.373Z,12.73
2017-10-11T08:14:46.993Z,12.50
2017-10-11T08:17:14.604Z,12.50
2017-10-11T08:19:42.277Z,12.93
2017-10-11T08:22:09.913Z,13.00
2017-10-11T08:24:37.523Z,12.30
2017-10-11T08:27:05.141Z,12.43
2017-10-11T08:29:32.737Z,12.27
2017-10-11T08:32:00.746Z,12.43
2017-10-11T08:34:28.341Z,12.60
2017-10-11T08:36:55.932Z,11.80
2017-10-11T08:39:23.544Z,12.40
2017-10-11T08:41:51.195Z,11.87
2017-10-11T08:44:18.824Z,11.90
2017-10-11T08:46:46.437Z,12.13
2017-10-11T08:49:14.039Z,11.50
2017-10-11T08:51:41.660Z,12.10
2017-10-11T08:54:10.332Z,11.83
2017-10-11T08:56:37.984Z,11.67
2017-10-11T08:59:06.035Z,11.63
2017-10-11T09:01:33.626Z,11.60
2017-10-11T09:04:01.261Z,11.43
2017-10-11T09:06:28.849Z,12.30
2017-10-11T09:08:56.477Z,11.67
2017-10-11T09:11:24.073Z,11.43
2017-10-11T09:13:51.657Z,11.47
2017-10-11T09:16:19.311Z,10.97
2017-10-11T09:18:46.905Z,11.00
2017-10-11T09:21:14.551Z,11.10
2017-10-11T09:23:42.148Z,11.20
2017-10-11T09:26:09.744Z,10.97
2017-10-11T09:28:37.353Z,11.03
2017-10-11T09:31:04.941Z,11.40
2017-10-11T09:33:32.564Z,10.80
2017-10-11T09:36:00.154Z,11.80
2017-10-11T09:38:27.757Z,11.20
2017-10-11T09:40:55.369Z,12.03
2017-10-11T09:43:22.967Z,11.30
2017-10-11T09:45:50.588Z,11.00
2017-10-11T09:48:18.164Z,11.90
2017-10-11T09:50:45.776Z,12.40
2017-10-11T09:53:13.389Z,11.57
2017-10-11T09:55:41.310Z,11.67
2017-10-11T09:58:09.370Z,11.87
2017-10-11T10:00:36.952Z,12.27
2017-10-11T10:03:04.551Z,11.40
2017-10-11T10:05:32.173Z,11.47
2017-10-11T10:07:59.783Z,11.80
2017-10-11T10:10:27.736Z,10.83
2017-10-11T10:12:55.655Z,10.83
2017-10-11T10:15:23.232Z,11.63
2017-10-11T10:17:50.857Z,11.63
2017-10-11T10:20:18.440Z,11.00
2017-10-11T10:22:46.091Z,11.17
2017-10-11T10:25:13.963Z,10.87
2017-10-11T10:27:41.548Z,11.17
2017-10-11T10:30:09.493Z,11.43
2017-10-11T10:32:37.093Z,10.30
2017-10-11T10:35:05.129Z,10.50
2017-10-11T10:37:32.738Z,10.80
2017-10-11T10:40:00.332Z,11.17
2017-10-11T10:42:28.222Z,11.73
2017-10-11T10:44:55.829Z,11.77
2017-10-11T10:47:23.453Z,11.13
2017-10-11T10:49:51.310Z,11.53
2017-10-11T10:52:18.901Z,13.10
2017-10-11T10:54:46.516Z,12.57
2017-10-11T10:57:14.269Z,12.73
2017-10-11T10:59:41.892Z,12.97
2017-10-11T11:02:09.510Z,12.97
2017-10-11T11:04:37.105Z,12.93
2017-10-11T11:07:04.726Z,13.00
2017-10-11T11:09:32.316Z,12.97
2017-10-11T11:11:59.961Z,13.10
2017-10-11T11:14:27.546Z,13.10
2017-10-11T11:16:55.147Z,14.37
2017-10-11T11:19:22.751Z,13.97
2017-10-11T11:21:50.366Z,13.93
2017-10-11T11:24:18.292Z,14.40
2017-10-11T11:26:45.883Z,13.97
2017-10-11T11:29:13.471Z,13.87
2017-10-11T11:31:41.379Z,14.70
2017-10-11T11:34:08.986Z,13.57
2017-10-11T11:36:36.625Z,15.17
2017-10-11T11:39:04.213Z,15.77
2017-10-11T11:41:31.805Z,14.10
2017-10-11T11:43:59.421Z,15.27
2017-10-11T11:46:27.022Z,14.33
2017-10-11T11:48:54.645Z,14.97
2017-10-11T11:51:22.241Z,14.80
2017-10-11T11:53:50.141Z,15.43
2017-10-11T11:56:17.756Z,15.87
2017-10-11T11:58:45.358Z,14.97
2017-10-11T12:01:12.977Z,16.00
2017-10-11T12:03:40.564Z,15.37
2017-10-11T12:06:08.146Z,15.10
2017-10-11T12:08:35.759Z,13.97
2017-10-11T12:11:03.384Z,14.53
2017-10-11T12:13:31.017Z,15.27
2017-10-11T12:15:58.614Z,14.70
2017-10-11T12:18:26.208Z,13.93
2017-10-11T12:20:53.834Z,14.40
2017-10-11T12:23:21.507Z,14.70
2017-10-11T12:25:49.097Z,15.00
2017-10-11T12:28:17.024Z,14.30
2017-10-11T12:30:44.664Z,14.70
2017-10-11T12:33:12.305Z,14.50
2017-10-11T12:35:39.949Z,13.90
2017-10-11T12:38:07.553Z,13.90
2017-10-11T12:40:35.140Z,14.27
2017-10-11T12:43:02.769Z,14.07
2017-10-11T12:45:30.357Z,14.17
2017-10-11T12:47:57.972Z,14.53
2017-10-11T12:50:25.562Z,13.50
2017-10-11T12:52:53.165Z,13.60
2017-10-11T12:55:20.798Z,13.60
2017-10-11T12:57:48.377Z,13.50
2017-10-11T13:00:16.018Z,12.50
2017-10-11T13:02:43.614Z,12.30
2017-10-11T13:05:11.210Z,13.23
2017-10-11T13:07:39.116Z,13.10
2017-10-11T13:10:06.704Z,13.37
2017-10-11T13:12:34.418Z,13.80
2017-10-11T13:15:02.009Z,13.70
2017-10-11T13:17:29.707Z,12.73
2017-10-11T13:19:57.338Z,12.60
2017-10-11T13:22:25.076Z,12.00
2017-10-11T13:24:52.857Z,13.00
2017-10-11T13:27:20.452Z,11.80
2017-10-11T13:29:48.042Z,12.83
2017-10-11T13:32:15.678Z,12.03
2017-10-11T13:34:43.262Z,12.27
2017-10-11T13:37:10.918Z,11.63
2017-10-11T13:39:38.497Z,12.07
2017-10-11T13:42:07.249Z,12.70
2017-10-11T13:44:34.986Z,11.60
2017-10-11T13:47:02.601Z,12.53
2017-10-11T13:49:30.236Z,12.50
2017-10-11T13:51:58.069Z,11.60
2017-10-11T13:54:25.680Z,12.20
2017-10-11T13:56:53.932Z,12.60
2017-10-11T13:59:21.519Z,12.90
2017-10-11T14:01:49.153Z,13.07
2017-10-11T14:04:16.739Z,13.17
2017-10-11T14:06:44.334Z,12.73
2017-10-11T14:09:11.954Z,13.10
2017-10-11T14:11:39.541Z,13.03
2017-10-11T14:14:07.178Z,13.50
2017-10-11T14:16:34.813Z,12.50
2017-10-11T14:19:02.410Z,12.83
2017-10-11T14:21:30.033Z,12.87
2017-10-11T14:23:57.629Z,13.30
2017-10-11T14:26:25.274Z,13.00
2017-10-11T14:28:52.883Z,14.27
2017-10-11T14:31:20.481Z,13.87
2017-10-11T14:33:48.559Z,12.97
2017-10-11T14:36:17.646Z,12.70
2017-10-11T14:38:45.280Z,13.10
2017-10-11T14:41:12.958Z,13.07
2017-10-11T14:43:40.837Z,13.00
2017-10-11T14:46:08.463Z,13.50
2017-10-11T14:48:36.070Z,12.87
2017-10-11T14:51:03.702Z,12.57
2017-10-11T14:53:31.606Z,11.77
2017-10-11T14:55:59.206Z,12.20
2017-10-11T14:58:27.232Z,12.63
2017-10-11T15:00:54.890Z,12.17
2017-10-11T15:03:22.530Z,12.60
2017-10-11T15:05:50.149Z,12.10
2017-10-11T15:08:17.748Z,12.00
2017-10-11T15:10:45.370Z,12.30
2017-10-11T15:13:12.983Z,11.70
2017-10-11T15:15:40.611Z,12.17
2017-10-11T15:18:08.206Z,12.10
2017-10-11T15:20:35.852Z,12.47
2017-10-11T15:23:03.468Z,11.60
2017-10-11T15:25:31.073Z,12.63
2017-10-11T15:27:58.711Z,11.40
2017-10-11T15:30:26.308Z,11.77
2017-10-11T15:32:53.989Z,12.00
2017-10-11T15:35:21.633Z,11.73
2017-10-11T15:37:49.261Z,12.13
2017-10-11T15:40:16.897Z,10.97
2017-10-11T15:42:44.569Z,13.43
2017-10-11T15:45:12.161Z,12.77
2017-10-11T15:47:39.790Z,12.50
2017-10-11T15:50:07.820Z,12.60
2017-10-11T15:52:35.457Z,11.60
2017-10-11T15:55:03.085Z,10.87
2017-10-11T15:57:30.935Z,11.33
2017-10-11T15:59:58.556Z,11.47
2017-10-11T16:02:26.148Z,11.17
2017-10-11T16:04:53.792Z,11.10
2017-10-11T16:07:21.689Z,11.07
2017-10-11T16:09:49.271Z,11.80
2017-10-11T16:12:16.920Z,11.70
2017-10-11T16:14:44.524Z,10.60
2017-10-11T16:17:12.431Z,11.50
2017-10-11T16:19:40.072Z,11.43
2017-10-11T16:22:07.692Z,10.80
2017-10-11T16:24:35.637Z,10.40
2017-10-11T16:27:03.223Z,11.40
2017-10-11T16:29:30.869Z,11.47
2017-10-11T16:31:58.461Z,12.00
2017-10-11T16:34:26.410Z,11.63
2017-10-11T16:36:54.040Z,10.50
2017-10-11T16:39:21.929Z,10.80
2017-10-11T16:41:49.555Z,10.83
2017-10-11T16:44:17.156Z,11.67
2017-10-11T16:46:44.741Z,10.67
2017-10-11T16:49:12.371Z,10.30
2017-10-11T16:51:40.064Z,11.27
2017-10-11T16:56:56.200Z,10.80
2017-10-11T16:59:23.884Z,10.93
2017-10-11T17:01:51.474Z,10.77
2017-10-11T17:04:19.320Z,11.50
2017-10-11T17:06:47.226Z,10.57
2017-10-11T17:09:14.822Z,11.00
2017-10-11T17:11:42.502Z,10.73
2017-10-11T17:14:10.116Z,10.87
2017-10-11T17:16:37.732Z,10.97
2017-10-11T17:19:05.359Z,11.27
2017-10-11T17:21:33.241Z,11.10
2017-10-11T17:24:01.372Z,11.30
2017-10-11T17:26:28.969Z,11.17
2017-10-11T17:28:56.553Z,11.43
2017-10-11T17:31:24.208Z,11.50
2017-10-11T17:33:51.789Z,10.83
2017-10-11T17:36:19.440Z,11.10
2017-10-11T17:38:47.025Z,10.90
2017-10-11T17:41:14.618Z,11.20
2017-10-11T17:43:42.245Z,10.37
2017-10-11T17:46:10.126Z,11.20
2017-10-11T17:48:37.792Z,11.23
2017-10-11T17:51:05.410Z,11.20
2017-10-11T17:53:33.029Z,11.37
2017-10-11T17:56:00.688Z,11.10
2017-10-11T17:58:28.859Z,11.27
2017-10-11T18:00:56.495Z,11.57
2017-10-11T18:03:24.081Z,11.13
2017-10-11T18:05:51.668Z,11.40
2017-10-11T18:08:19.291Z,11.50
2017-10-11T18:10:46.963Z,11.60
2017-10-11T18:13:14.599Z,11.23
2017-10-11T18:15:42.201Z,11.10
2017-10-11T18:18:09.854Z,11.00
2017-10-11T18:20:37.473Z,11.10
2017-10-11T18:23:05.385Z,10.90
2017-10-11T18:25:33.084Z,11.40
2017-10-11T18:28:00.718Z,11.57
2017-10-11T18:30:28.306Z,10.87
2017-10-11T18:32:56.184Z,12.07
2017-10-11T18:35:23.776Z,12.13
2017-10-11T18:37:52.220Z,11.37
2017-10-11T18:40:20.179Z,11.20
2017-10-11T18:42:48.017Z,11.40
2017-10-11T18:45:15.634Z,11.33
2017-10-11T18:47:43.234Z,11.20
2017-10-11T18:50:10.870Z,11.23
2017-10-11T18:52:38.791Z,11.40
2017-10-11T18:55:06.385Z,10.97
2017-10-11T18:57:34.031Z,11.53
2017-10-11T19:00:01.646Z,11.30
2017-10-11T19:02:29.765Z,11.20
2017-10-11T19:04:57.600Z,11.80
2017-10-11T19:07:25.207Z,11.73
2017-10-11T19:09:52.844Z,11.93
2017-10-11T19:12:20.464Z,12.37
2017-10-11T19:14:48.127Z,10.73
2017-10-11T19:17:15.733Z,11.70
2017-10-11T19:19:43.781Z,11.70
2017-10-11T19:22:11.399Z,11.77
2017-10-11T19:27:03.616Z,11.77
2017-10-11T19:29:31.229Z,12.50
2017-10-11T19:31:58.851Z,12.70
2017-10-11T19:34:26.490Z,12.03
2017-10-11T19:36:54.152Z,11.97
2017-10-11T19:39:21.853Z,11.97
2017-10-11T19:41:49.456Z,11.83
2017-10-11T19:44:17.071Z,12.00
2017-10-11T19:46:44.701Z,12.30
2017-10-11T19:49:12.308Z,10.97
2017-10-11T19:51:39.930Z,11.40
2017-10-11T19:54:07.589Z,11.27
2017-10-11T19:56:35.196Z,12.40
2017-10-11T19:59:02.806Z,12.20
2017-10-11T20:01:30.472Z,12.83
2017-10-11T20:03:58.125Z,12.17
2017-10-11T20:06:25.728Z,12.00
2017-10-11T20:08:53.398Z,11.80
2017-10-11T20:11:21.086Z,12.00
2017-10-11T20:13:48.736Z,11.20
2017-10-11T20:16:16.328Z,11.87
2017-10-11T20:18:44.093Z,12.20
2017-10-11T20:21:11.754Z,12.17
2017-10-11T20:23:39.404Z,12.70
2017-10-11T20:26:07.408Z,12.10
2017-10-11T20:28:35.021Z,11.67
2017-10-11T20:31:02.717Z,12.90
2017-10-11T20:33:30.469Z,12.07
2017-10-11T20:35:58.470Z,11.70
2017-10-11T20:38:26.096Z,11.90
2017-10-11T20:40:53.695Z,12.70
2017-10-11T20:43:21.873Z,11.80
2017-10-11T20:45:49.490Z,13.17
2017-10-11T20:48:17.103Z,12.07
2017-10-11T20:50:44.749Z,11.50
2017-10-11T20:53:12.350Z,11.77
2017-10-11T20:55:40.033Z,12.10
2017-10-11T20:58:07.628Z,12.40
2017-10-11T21:00:35.261Z,11.80
2017-10-11T21:03:02.908Z,12.13
2017-10-11T21:05:30.503Z,12.00
2017-10-11T21:07:58.173Z,11.77
2017-10-11T21:10:25.777Z,11.97
2017-10-11T21:12:53.418Z,11.60
2017-10-11T21:15:21.072Z,11.80
2017-10-11T21:17:48.682Z,12.07
2017-10-11T21:20:16.340Z,12.00
2017-10-11T21:22:43.948Z,12.20
2017-10-11T21:25:11.562Z,11.23
2017-10-11T21:27:39.260Z,11.87
2017-10-11T21:30:06.867Z,11.20
2017-10-11T21:32:34.508Z,11.37
2017-10-11T21:35:02.110Z,11.00
2017-10-11T21:37:29.734Z,11.87
2017-10-11T21:39:57.362Z,11.87
2017-10-11T21:42:24.967Z,10.97
2017-10-11T21:44:52.624Z,10.50
2017-10-11T21:47:20.224Z,10.90
2017-10-11T21:49:47.837Z,10.63
2017-10-11T21:52:15.473Z,11.30
2017-10-11T21:54:43.377Z,10.53
2017-10-11T21:57:11.039Z,10.97
2017-10-11T21:59:38.620Z,11.13
2017-10-11T22:02:06.295Z,10.70
2017-10-11T22:04:33.933Z,11.03
2017-10-11T22:07:01.530Z,10.20
2017-10-11T22:09:29.311Z,10.80
2017-10-11T22:11:56.918Z,10.17
2017-10-11T22:14:24.524Z,11.10
2017-10-11T22:16:52.151Z,11.00
2017-10-11T22:19:19.740Z,10.30
2017-10-11T22:21:47.676Z,10.83
2017-10-11T22:24:15.268Z,11.03
2017-10-11T22:26:42.870Z,10.20
2017-10-11T22:29:10.530Z,10.23
2017-10-11T22:31:38.146Z,10.97
2017-10-11T22:34:05.785Z,10.80
2017-10-11T22:36:33.386Z,10.43
2017-10-11T22:39:00.985Z,11.53
2017-10-11T22:41:28.679Z,10.53
2017-10-11T22:43:56.288Z,10.73
2017-10-11T22:46:24.200Z,10.10
2017-10-11T22:48:51.803Z,10.67
2017-10-11T22:51:19.412Z,10.67
2017-10-11T22:53:47.033Z,12.03
2017-10-11T22:56:14.654Z,10.30
2017-10-11T22:58:42.622Z,10.60
2017-10-11T23:01:10.223Z,10.53
2017-10-11T23:03:37.833Z,10.70
2017-10-11T23:06:05.723Z,10.50
2017-10-11T23:08:33.317Z,10.43
2017-10-11T23:11:01.246Z,10.60
2017-10-11T23:13:28.856Z,11.00
2017-10-11T23:15:56.461Z,10.20
2017-10-11T23:18:24.097Z,10.17
2017-10-11T23:20:51.693Z,10.87
2017-10-11T23:23:19.342Z,10.87
2017-10-11T23:25:46.944Z,10.37
2017-10-11T23:28:14.549Z,10.97
2017-10-11T23:30:42.183Z,10.80
2017-10-11T23:33:09.784Z,10.67
2017-10-11T23:35:37.421Z,10.60
2017-10-11T23:38:05.009Z,10.67
2017-10-11T23:40:32.609Z,10.57
2017-10-11T23:43:00.225Z,10.30
2017-10-11T23:45:27.832Z,10.63
2017-10-11T23:47:55.501Z,10.53
2017-10-11T23:50:23.100Z,10.80
2017-10-11T23:52:50.717Z,10.43
2017-10-11T23:55:18.338Z,10.37
2017-10-11T23:57:45.942Z,10.37
